Time;durP1;ratioP1;P1;durP2;ratioP2;P2;SDS_P1;SDS_P2;PMS_P1;PMS_P2;Temp;Humidity;BMP_temperature;BMP_pressure;BME280_temperature;BME280_humidity;BME280_pressure;Samples;Min_cycle;Max_cycle;Signal;HPM_P1;HPM_P2
2023/03/27 00:01:05;;;;;;;9.05;3.78;;;;;;;9.39;59.77;99239.41;5006604;28;20045;-28
2023/03/27 00:03:31;;;;;;;7.78;3.38;;;;;;;9.50;59.16;99224.47;4996417;28;20632;-27
2023/03/27 00:06:02;;;;;;;7.30;3.60;;;;;;;9.33;60.83;99208.41;4986803;28;20042;-28
2023/03/27 00:08:28;;;;;;;6.82;3.55;;;;;;;9.36;60.91;99218.59;4987173;28;20046;-28
2023/03/27 00:10:54;;;;;;;11.07;4.50;;;;;;;9.00;63.00;99212.44;4986766;28;20026;-28
2023/03/27 00:13:20;;;;;;;6.88;3.55;;;;;;;9.03;62.79;99220.75;4986743;28;20030;-28
2023/03/27 00:15:46;;;;;;;7.47;3.45;;;;;;;8.93;64.56;99207.22;4986788;28;20417;-28
2023/03/27 00:18:12;;;;;;;8.73;4.45;;;;;;;9.20;62.67;99220.09;4986962;28;20084;-28
2023/03/27 00:20:38;;;;;;;8.40;4.10;;;;;;;9.03;62.00;99169.41;4986676;28;20038;-28
2023/03/27 00:23:05;;;;;;;9.95;3.78;;;;;;;9.00;61.03;99207.91;4987238;28;20398;-28
2023/03/27 00:25:31;;;;;;;9.65;4.38;;;;;;;8.84;60.50;99189.97;4986875;28;20019;-28
2023/03/27 00:27:57;;;;;;;8.13;3.15;;;;;;;8.80;59.49;99184.28;4986814;28;20840;-28
2023/03/27 00:30:25;;;;;;;4.70;2.13;;;;;;;8.74;58.88;99193.19;4986795;28;20027;-28
2023/03/27 00:32:53;;;;;;;4.43;2.20;;;;;;;8.82;58.15;99187.53;4986921;28;20046;-28
2023/03/27 00:35:18;;;;;;;4.50;1.83;;;;;;;8.60;58.37;99191.75;4986853;28;20113;-28
2023/03/27 00:37:44;;;;;;;4.25;1.50;;;;;;;8.69;57.48;99182.44;4986678;28;21137;-28
2023/03/27 00:40:28;;;;;;;4.10;1.60;;;;;;;8.77;57.02;99184.75;4986597;28;20046;-28
2023/03/27 00:42:56;;;;;;;3.70;1.40;;;;;;;8.82;56.55;99182.22;4986582;28;20026;-28
2023/03/27 00:45:30;;;;;;;2.92;1.38;;;;;;;8.71;55.62;99185.69;4986895;28;20039;-28
2023/03/27 00:48:00;;;;;;;3.70;1.98;;;;;;;8.83;55.27;99167.91;4986548;28;20090;-28
2023/03/27 00:50:33;;;;;;;4.68;1.60;;;;;;;8.76;55.26;99159.19;4986633;28;20031;-28
2023/03/27 00:53:06;;;;;;;4.25;1.90;;;;;;;8.82;55.11;99160.94;4986720;28;20030;-28
2023/03/27 00:55:36;;;;;;;5.07;1.98;;;;;;;8.88;55.14;99158.41;4986526;28;20106;-27
2023/03/27 00:58:12;;;;;;;3.30;1.50;;;;;;;8.53;56.23;99162.63;4986822;28;20209;-28
2023/03/27 01:00:37;;;;;;;3.85;1.50;;;;;;;8.66;55.41;99156.28;4986405;28;20043;-27
2023/03/27 01:03:05;;;;;;;4.85;1.40;;;;;;;8.93;54.69;99145.22;4986616;28;20029;-27
2023/03/27 01:05:32;;;;;;;4.05;1.10;;;;;;;9.11;54.08;99147.78;4986851;28;20078;-27
2023/03/27 01:07:59;;;;;;;2.83;1.40;;;;;;;8.96;54.32;99144.78;4986511;28;20037;-27
2023/03/27 01:10:34;;;;;;;1.70;1.30;;;;;;;8.90;54.66;99121.78;4986491;28;20026;-27
2023/03/27 01:13:23;;;;;;;3.40;1.10;;;;;;;8.98;53.86;99137.38;4986245;28;20062;-27
2023/03/27 01:16:05;;;;;;;3.85;1.27;;;;;;;8.96;53.98;99131.50;4973820;28;20034;-28
2023/03/27 01:18:49;;;;;;;2.72;1.10;;;;;;;9.36;53.28;99130.78;4968909;28;20099;-27
2023/03/27 01:21:52;;;;;;;4.75;1.38;;;;;;;9.39;54.57;99127.63;4986289;28;20026;-27
2023/03/27 01:24:41;;;;;;;5.18;2.00;;;;;;;9.30;54.97;99118.41;4988086;28;20037;-27
2023/03/27 01:27:26;;;;;;;3.72;1.77;;;;;;;9.39;54.65;99125.78;4989747;28;20033;-27
2023/03/27 01:29:56;;;;;;;2.65;1.42;;;;;;;9.34;55.76;99115.03;4989747;28;20527;-27
2023/03/27 01:32:40;;;;;;;6.15;1.85;;;;;;;9.52;55.41;99095.47;4989756;28;20030;-27
2023/03/27 01:35:30;;;;;;;3.38;1.50;;;;;;;9.83;55.07;99112.03;4989471;28;20065;-27
2023/03/27 01:38:27;;;;;;;3.72;1.90;;;;;;;9.73;55.98;99111.84;4989520;28;20030;-27
2023/03/27 01:41:05;;;;;;;3.35;1.92;;;;;;;9.79;56.12;99105.56;4989869;28;20632;-27
2023/03/27 01:44:03;;;;;;;4.07;1.73;;;;;;;9.61;57.24;99094.03;4989300;28;20034;-27
2023/03/27 01:46:37;;;;;;;3.97;2.05;;;;;;;9.51;57.76;99088.50;4989453;28;20035;-27
2023/03/27 01:49:27;;;;;;;4.75;2.03;;;;;;;9.53;58.10;99080.28;4989405;28;20105;-27
2023/03/27 01:51:59;;;;;;;4.22;2.13;;;;;;;9.18;59.95;99057.25;4989401;28;20512;-27
2023/03/27 01:54:30;;;;;;;8.30;2.40;;;;;;;9.37;60.67;99082.63;4989279;28;20521;-27
2023/03/27 01:57:23;;;;;;;5.10;2.55;;;;;;;9.62;60.27;99090.34;4989194;28;20050;-27
2023/03/27 01:59:55;;;;;;;5.65;2.65;;;;;;;9.31;61.81;99061.47;4989032;28;20429;-27
2023/03/27 02:02:29;;;;;;;7.57;3.15;;;;;;;9.39;62.18;99069.09;4989370;28;20037;-27
2023/03/27 02:05:01;;;;;;;6.82;3.15;;;;;;;9.62;62.66;99077.03;4989272;28;20030;-27
2023/03/27 02:07:52;;;;;;;7.00;4.00;;;;;;;9.20;64.67;99039.19;4989232;28;20038;-27
2023/03/27 02:10:24;;;;;;;6.47;3.65;;;;;;;9.13;66.04;99060.56;4989214;28;20133;-27
2023/03/27 02:12:57;;;;;;;8.00;4.13;;;;;;;9.20;65.55;99028.56;4989256;28;20516;-28
2023/03/27 02:15:29;;;;;;;10.90;6.70;;;;;;;8.98;67.71;99055.75;4988898;28;20038;-27
2023/03/27 02:18:03;;;;;;;24.10;12.25;;;;;;;9.07;68.55;99061.50;4988966;28;20030;-27
2023/03/27 02:20:30;;;;;;;71.30;35.75;;;;;;;9.06;69.36;99067.88;4988753;28;20037;-27
2023/03/27 02:22:59;;;;;;;14.07;7.47;;;;;;;8.91;71.92;99072.84;4988837;28;20129;-27
2023/03/27 02:25:30;;;;;;;24.67;15.18;;;;;;;8.96;72.93;99073.78;4988773;28;20087;-27
2023/03/27 02:28:05;;;;;;;23.80;17.30;;;;;;;9.00;73.67;99076.81;4988722;28;20518;-27
2023/03/27 02:30:42;;;;;;;16.27;10.55;;;;;;;8.82;74.38;99054.59;4988391;28;20034;-27
2023/03/27 02:33:13;;;;;;;15.30;8.88;;;;;;;9.01;73.96;99070.44;4988511;28;20036;-27
2023/03/27 02:36:02;;;;;;;17.40;12.50;;;;;;;8.90;74.13;99060.63;4988368;28;20121;-27
2023/03/27 02:39:07;;;;;;;16.25;10.18;;;;;;;8.80;74.20;99040.72;4988516;28;20042;-27
2023/03/27 02:41:43;;;;;;;12.38;8.25;;;;;;;8.64;74.85;99031.63;4988512;28;20095;-27
2023/03/27 02:44:43;;;;;;;15.70;8.18;;;;;;;8.99;74.31;99051.22;4988490;28;20122;-27
2023/03/27 02:47:21;;;;;;;12.02;7.70;;;;;;;8.84;75.06;99041.88;4988289;28;20042;-27
2023/03/27 02:49:51;;;;;;;10.38;6.75;;;;;;;8.90;75.27;99047.31;4988497;28;20057;-27
2023/03/27 02:52:27;;;;;;;14.98;8.75;;;;;;;8.83;76.86;99045.59;4988207;28;20034;-27
2023/03/27 02:55:05;;;;;;;13.73;8.77;;;;;;;8.71;78.29;99031.50;4988383;28;20047;-27
2023/03/27 02:57:38;;;;;;;17.55;11.75;;;;;;;8.73;79.36;99041.91;4988247;28;20093;-27
2023/03/27 03:00:12;;;;;;;14.73;9.52;;;;;;;8.70;80.00;99019.25;4987828;28;20049;-27
2023/03/27 03:02:40;;;;;;;15.45;10.05;;;;;;;8.82;80.54;99038.66;4988033;28;20520;-27
2023/03/27 03:05:09;;;;;;;16.10;10.68;;;;;;;8.55;82.69;99035.66;4988004;28;20037;-27
2023/03/27 03:07:37;;;;;;;16.58;11.35;;;;;;;8.84;81.55;99039.22;4987780;28;20034;-27
2023/03/27 03:10:04;;;;;;;17.27;10.75;;;;;;;8.80;82.21;99040.72;4987693;28;20026;-27
2023/03/27 03:12:30;;;;;;;17.15;9.70;;;;;;;8.85;83.24;99038.19;4987650;28;20046;-28
2023/03/27 03:14:55;;;;;;;16.45;10.40;;;;;;;8.68;85.35;99039.13;4988078;28;20030;-27
2023/03/27 03:17:21;;;;;;;18.88;10.88;;;;;;;8.53;86.56;99035.09;4987852;28;20045;-27
2023/03/27 03:19:47;;;;;;;16.70;9.70;;;;;;;8.31;88.04;99026.03;4987438;28;20037;-27
2023/03/27 03:22:13;;;;;;;15.45;9.98;;;;;;;8.44;87.15;99025.84;4987847;28;20081;-28
2023/03/27 03:24:40;;;;;;;17.23;10.70;;;;;;;8.45;86.02;99017.63;4987363;28;20077;-27
2023/03/27 03:27:07;;;;;;;18.17;11.30;;;;;;;8.64;84.72;99028.13;4987785;28;20037;-27
2023/03/27 03:29:34;;;;;;;18.52;11.07;;;;;;;8.48;85.24;99015.53;4987279;28;20075;-27
2023/03/27 03:32:05;;;;;;;16.38;10.25;;;;;;;8.45;84.81;99019.47;4987676;28;20053;-27
2023/03/27 03:34:32;;;;;;;19.05;10.85;;;;;;;8.57;84.58;99027.47;4987532;28;20030;-27
2023/03/27 03:36:58;;;;;;;17.83;10.32;;;;;;;8.61;84.04;99016.13;4987562;28;20034;-27
2023/03/27 03:39:24;;;;;;;18.05;10.77;;;;;;;8.54;84.31;99011.97;4987042;28;20066;-27
2023/03/27 03:41:49;;;;;;;15.48;9.23;;;;;;;8.42;84.74;99012.78;4987441;28;20053;-27
2023/03/27 03:44:15;;;;;;;19.70;10.90;;;;;;;8.58;85.02;99019.28;4987490;28;20468;-27
2023/03/27 03:46:41;;;;;;;17.80;10.70;;;;;;;8.44;86.21;99016.03;4987005;28;20034;-27
2023/03/27 03:49:07;;;;;;;20.40;11.00;;;;;;;8.42;87.87;99023.41;4987274;28;20038;-27
2023/03/27 03:51:34;;;;;;;21.17;12.32;;;;;;;8.64;87.52;99014.84;4987182;28;20109;-27
2023/03/27 03:54:00;;;;;;;20.20;11.45;;;;;;;8.60;87.58;99013.69;4987254;28;20484;-27
2023/03/27 03:56:28;;;;;;;18.25;11.75;;;;;;;8.63;88.13;99007.94;4987161;28;20036;-27
2023/03/27 03:58:54;;;;;;;17.40;10.55;;;;;;;8.48;88.26;99002.25;4987265;28;20054;-27
2023/03/27 04:01:20;;;;;;;17.88;10.65;;;;;;;8.57;87.68;98992.91;4987212;28;20034;-27
2023/03/27 04:03:47;;;;;;;22.88;11.27;;;;;;;8.63;87.31;98990.13;4987549;28;20030;-27
2023/03/27 04:06:12;;;;;;;20.15;11.48;;;;;;;8.50;88.16;98982.41;4969888;28;20030;-27
2023/03/27 04:08:38;;;;;;;16.95;10.38;;;;;;;8.34;88.91;98983.88;4987226;28;20089;-27
2023/03/27 04:11:04;;;;;;;20.95;11.60;;;;;;;8.42;89.32;98975.59;4986915;28;20964;-27
2023/03/27 04:13:30;;;;;;;18.35;11.40;;;;;;;8.35;90.09;98980.16;4987137;28;20030;-27
2023/03/27 04:15:55;;;;;;;19.70;11.63;;;;;;;8.43;88.80;98971.88;4987069;28;20076;-27
2023/03/27 04:18:31;;;;;;;18.02;11.45;;;;;;;8.35;90.03;98977.50;4986730;28;20026;-28
2023/03/27 04:20:59;;;;;;;21.33;11.45;;;;;;;8.24;90.69;98983.66;4987239;28;20018;-27
2023/03/27 04:23:29;;;;;;;18.38;11.32;;;;;;;8.37;90.28;98988.72;4987095;28;20129;-27
2023/03/27 04:25:58;;;;;;;20.70;12.60;;;;;;;8.49;90.49;98983.44;4986909;28;20049;-27
2023/03/27 04:28:26;;;;;;;22.92;12.32;;;;;;;8.35;91.30;98985.47;4986471;28;20091;-27
2023/03/27 04:30:52;;;;;;;19.48;11.90;;;;;;;8.48;90.30;98988.97;4986500;28;20604;-27
2023/03/27 04:33:17;;;;;;;22.95;12.48;;;;;;;8.35;90.78;98990.78;4986819;28;20043;-27
2023/03/27 04:35:44;;;;;;;22.42;11.90;;;;;;;8.28;90.93;98978.69;4986800;28;20030;-27
2023/03/27 04:38:11;;;;;;;42.22;23.55;;;;;;;8.26;92.08;98981.56;4986504;28;20033;-27
2023/03/27 04:40:37;;;;;;;28.67;15.30;;;;;;;8.45;90.66;98974.31;4986910;28;20069;-27
2023/03/27 04:43:03;;;;;;;40.30;19.63;;;;;;;8.35;91.08;98974.84;4986765;28;20774;-27
2023/03/27 04:45:28;;;;;;;72.70;31.83;;;;;;;8.38;90.53;98971.75;4986718;28;20029;-27
2023/03/27 04:47:54;;;;;;;25.88;13.05;;;;;;;8.58;89.08;98965.28;4986797;28;20030;-27
2023/03/27 04:50:19;;;;;;;34.83;17.70;;;;;;;8.34;91.22;98964.47;4986463;28;20030;-27
2023/03/27 04:52:48;;;;;;;133.80;62.83;;;;;;;8.52;90.71;98958.25;4986739;28;20022;-27
2023/03/27 04:55:14;;;;;;;38.88;21.88;;;;;;;8.52;90.40;98953.75;4986695;28;20031;-27
2023/03/27 04:57:43;;;;;;;24.27;13.52;;;;;;;8.68;89.39;98956.72;4969691;28;20035;-27
2023/03/27 05:00:18;;;;;;;23.67;13.20;;;;;;;8.57;90.71;98951.19;4990117;28;20077;-27
2023/03/27 05:02:47;;;;;;;22.73;14.10;;;;;;;8.61;90.72;98946.22;4990288;28;20027;-27
2023/03/27 05:05:15;;;;;;;24.73;14.45;;;;;;;8.75;90.37;98962.75;4990279;28;20022;-27
2023/03/27 05:07:44;;;;;;;26.08;16.38;;;;;;;8.79;89.59;98954.06;4990194;28;20038;-27
2023/03/27 05:10:10;;;;;;;22.45;12.23;;;;;;;9.04;88.40;98951.09;4990033;28;20506;-27
2023/03/27 05:12:36;;;;;;;21.25;12.25;;;;;;;8.99;88.77;98963.47;4990256;28;20088;-27
2023/03/27 05:15:04;;;;;;;30.27;15.35;;;;;;;8.85;89.02;98947.81;4989989;28;20034;-29
2023/03/27 05:17:31;;;;;;;22.20;13.80;;;;;;;9.05;89.35;98962.53;4989555;28;20035;-27
2023/03/27 05:19:56;;;;;;;21.70;13.85;;;;;;;9.44;88.11;98970.75;4989359;28;20046;-27
2023/03/27 05:22:24;;;;;;;27.92;14.65;;;;;;;9.36;88.76;98957.84;4989593;28;20082;-27
2023/03/27 05:24:50;;;;;;;24.20;13.98;;;;;;;9.49;88.00;98962.06;4989308;28;20038;-27
2023/03/27 05:27:15;;;;;;;24.05;14.60;;;;;;;9.41;89.08;98953.38;4988983;28;20140;-27
2023/03/27 05:29:41;;;;;;;22.48;12.70;;;;;;;9.63;86.96;98947.41;4988897;28;20109;-27
2023/03/27 05:32:06;;;;;;;18.25;11.65;;;;;;;9.62;86.84;98924.47;4989435;28;20027;-27
2023/03/27 05:34:33;;;;;;;23.27;12.90;;;;;;;9.63;87.86;98929.56;4989692;28;20041;-27
2023/03/27 05:37:04;;;;;;;22.88;14.18;;;;;;;9.90;86.43;98942.25;4989539;28;20022;-27
2023/03/27 05:39:30;;;;;;;22.77;13.50;;;;;;;10.26;84.28;98946.28;4989342;28;20027;-27
2023/03/27 05:41:55;;;;;;;19.98;12.23;;;;;;;10.43;83.12;98940.94;4989644;28;20433;-27
2023/03/27 05:44:22;;;;;;;21.08;12.80;;;;;;;10.48;83.10;98926.06;4989222;28;20035;-27
2023/03/27 05:46:47;;;;;;;21.23;12.93;;;;;;;11.02;81.35;98936.91;4989700;28;20117;-27
2023/03/27 05:49:14;;;;;;;22.75;12.88;;;;;;;10.91;81.56;98925.31;4989329;28;20038;-27
2023/03/27 05:51:40;;;;;;;23.15;14.45;;;;;;;10.99;81.41;98929.38;4989780;28;20031;-27
2023/03/27 05:54:05;;;;;;;25.63;14.63;;;;;;;10.82;82.19;98914.25;4989495;28;20414;-27
2023/03/27 05:56:31;;;;;;;24.85;14.13;;;;;;;11.14;82.28;98910.88;4989063;28;20069;-27
2023/03/27 05:58:56;;;;;;;26.30;16.05;;;;;;;11.01;82.44;98900.59;4988811;28;20043;-27
2023/03/27 06:01:22;;;;;;;32.60;17.17;;;;;;;11.22;82.13;98889.09;4989194;28;20713;-27
2023/03/27 06:03:48;;;;;;;24.20;14.80;;;;;;;11.35;82.18;98903.09;4989496;28;20030;-27
2023/03/27 06:06:14;;;;;;;26.60;15.25;;;;;;;11.53;81.53;98905.38;4989103;28;20121;-27
2023/03/27 06:08:40;;;;;;;31.58;20.05;;;;;;;11.41;81.57;98902.06;4989343;28;20813;-27
2023/03/27 06:11:13;;;;;;;42.53;26.52;;;;;;;11.59;81.62;98893.69;4988145;28;20026;-27
2023/03/27 06:13:39;;;;;;;37.92;21.13;;;;;;;11.70;80.33;98897.25;4989067;28;20050;-28
2023/03/27 06:16:05;;;;;;;39.28;22.80;;;;;;;11.80;81.55;98891.19;4988960;28;20026;-27
2023/03/27 06:18:31;;;;;;;35.35;21.10;;;;;;;12.22;78.56;98891.25;4988695;28;20038;-27
2023/03/27 06:20:57;;;;;;;31.83;17.92;;;;;;;12.30;79.32;98884.63;4988707;28;20487;-27
2023/03/27 06:23:22;;;;;;;71.65;47.10;;;;;;;12.55;77.61;98867.88;4989136;28;20505;-28
2023/03/27 06:25:48;;;;;;;34.97;23.45;;;;;;;12.41;78.02;98869.41;4988766;28;20026;-27
2023/03/27 06:28:13;;;;;;;39.75;27.58;;;;;;;12.51;77.91;98869.47;4988682;28;20034;-27
2023/03/27 06:30:39;;;;;;;31.27;20.75;;;;;;;12.92;76.52;98874.16;4988438;28;20034;-27
2023/03/27 06:33:06;;;;;;;28.83;18.88;;;;;;;13.26;76.28;98861.94;4988927;28;20417;-28
2023/03/27 06:35:32;;;;;;;26.40;17.48;;;;;;;13.46;74.36;98861.19;4988649;28;20034;-28
2023/03/27 06:37:59;;;;;;;31.10;20.45;;;;;;;13.49;75.00;98853.69;4988650;28;20034;-28
2023/03/27 06:40:27;;;;;;;25.80;17.15;;;;;;;13.82;74.39;98836.25;4988467;28;20037;-28
2023/03/27 06:42:52;;;;;;;;;;;;;;;14.25;73.21;98850.88;4988919;28;20022;-28
2023/03/27 06:45:18;;;;;;;25.92;17.77;;;;;;;14.47;71.79;98855.91;4988473;28;20005;-28
2023/03/27 06:47:52;;;;;;;34.95;29.77;;;;;;;14.15;71.88;98850.13;4988372;28;20117;-28
2023/03/27 06:50:18;;;;;;;27.73;15.27;;;;;;;13.75;72.97;98863.31;4988184;28;20505;-28
2023/03/27 06:52:45;;;;;;;27.88;18.30;;;;;;;13.75;73.71;98865.19;4988386;28;20030;-28
2023/03/27 06:55:10;;;;;;;26.17;17.08;;;;;;;13.79;73.73;98858.22;4988209;28;20038;-28
2023/03/27 06:57:41;;;;;;;26.15;16.95;;;;;;;13.68;74.43;98848.59;4988369;28;20033;-28
2023/03/27 07:00:25;;;;;;;25.13;16.67;;;;;;;13.57;75.04;98850.47;4987595;28;20498;-28
2023/03/27 07:02:55;;;;;;;26.52;18.23;;;;;;;13.79;74.03;98842.13;4987905;28;20026;-28
2023/03/27 07:05:21;;;;;;;26.48;17.02;;;;;;;13.87;73.97;98844.25;4987809;28;20596;-28
2023/03/27 07:07:47;;;;;;;39.40;24.00;;;;;;;13.88;74.20;98845.88;4987738;28;20038;-28
2023/03/27 07:10:13;;;;;;;86.68;41.78;;;;;;;14.14;74.37;98837.78;4987878;28;20022;-28
2023/03/27 07:12:40;;;;;;;87.00;41.85;;;;;;;13.99;73.68;98826.00;4988170;28;20026;-28
2023/03/27 07:15:06;;;;;;;53.50;28.15;;;;;;;14.14;73.43;98827.06;4987745;28;20026;-28
2023/03/27 07:17:33;;;;;;;40.83;26.90;;;;;;;14.24;73.80;98817.13;4987739;28;20045;-28
2023/03/27 07:19:58;;;;;;;29.75;20.58;;;;;;;14.44;73.06;98804.69;4987505;28;20693;-28
2023/03/27 07:22:25;;;;;;;27.73;18.20;;;;;;;14.39;73.75;98797.47;4986599;28;20512;-28
2023/03/27 07:24:52;;;;;;;28.75;18.10;;;;;;;14.46;74.06;98786.44;4987532;28;20036;-28
2023/03/27 07:27:18;;;;;;;29.40;19.58;;;;;;;14.37;74.78;98780.06;4987532;28;20030;-28
2023/03/27 07:29:43;;;;;;;26.33;18.35;;;;;;;14.39;74.84;98776.03;4987273;28;20030;-28
2023/03/27 07:32:09;;;;;;;29.27;19.27;;;;;;;14.34;74.13;98765.31;4987568;28;20133;-28
2023/03/27 07:34:34;;;;;;;25.60;18.30;;;;;;;14.26;74.89;98763.19;4987540;28;20026;-28
2023/03/27 07:37:00;;;;;;;28.90;19.10;;;;;;;14.21;76.00;98752.50;4987158;28;20481;-28
2023/03/27 07:39:25;;;;;;;30.73;18.95;;;;;;;14.22;75.67;98729.97;4987158;28;20391;-28
2023/03/27 07:41:51;;;;;;;35.53;22.35;;;;;;;14.43;75.47;98739.53;4987224;28;20081;-28
2023/03/27 07:44:18;;;;;;;29.67;19.25;;;;;;;14.56;74.42;98727.41;4987298;28;20029;-28
2023/03/27 07:46:45;;;;;;;35.70;20.55;;;;;;;14.43;75.39;98717.28;4987080;28;20053;-28
2023/03/27 07:49:10;;;;;;;32.00;21.42;;;;;;;14.90;74.10;98709.75;4987105;28;20121;-28
2023/03/27 07:51:37;;;;;;;36.92;23.58;;;;;;;14.91;74.83;98689.88;4986826;28;20113;-28
2023/03/27 07:54:03;;;;;;;29.27;20.08;;;;;;;15.47;72.58;98681.31;4987125;28;20034;-28
2023/03/27 07:56:32;;;;;;;26.42;18.30;;;;;;;15.97;70.99;98654.94;4987242;28;20056;-28
2023/03/27 07:58:57;;;;;;;26.75;18.65;;;;;;;16.44;70.17;98638.94;4986646;28;20056;-28
2023/03/27 08:01:24;;;;;;;23.83;16.88;;;;;;;16.61;68.83;98636.53;4986641;28;20026;-28
2023/03/27 08:03:50;;;;;;;24.00;15.57;;;;;;;16.61;67.46;98622.28;4986993;28;20082;-29
2023/03/27 08:06:17;;;;;;;43.28;28.10;;;;;;;16.65;66.25;98623.28;4987116;28;20041;-28
2023/03/27 08:08:42;;;;;;;28.55;17.25;;;;;;;17.03;59.25;98620.53;4986891;28;20085;-28
2023/03/27 08:11:07;;;;;;;12.20;7.93;;;;;;;17.17;56.27;98637.50;4986721;28;20054;-28
2023/03/27 08:13:33;;;;;;;23.92;14.02;;;;;;;16.73;66.33;98627.19;4986662;28;20406;-28
2023/03/27 08:16:11;;;;;;;22.58;14.52;;;;;;;15.88;68.28;98602.91;4987024;28;20030;-28
2023/03/27 08:18:37;;;;;;;23.10;15.85;;;;;;;15.90;69.71;98614.16;4986727;28;20076;-29
2023/03/27 08:21:04;;;;;;;20.95;14.13;;;;;;;15.74;68.32;98616.25;4987022;28;20458;-28
2023/03/27 08:23:31;;;;;;;22.05;14.65;;;;;;;15.51;69.10;98593.66;4986813;28;20417;-28
2023/03/27 08:25:59;;;;;;;22.10;15.15;;;;;;;15.68;69.11;98585.13;4986574;28;20121;-28
2023/03/27 08:28:37;;;;;;;23.33;16.35;;;;;;;15.86;69.07;98586.28;4986890;28;20081;-28
2023/03/27 08:31:10;;;;;;;33.15;20.27;;;;;;;16.06;67.00;98564.47;4986850;28;20085;-28
2023/03/27 08:33:36;;;;;;;24.08;15.75;;;;;;;16.26;65.80;98551.78;4988732;28;20026;-28
2023/03/27 08:36:01;;;;;;;22.85;16.17;;;;;;;16.52;65.93;98548.69;4990451;28;20525;-28
2023/03/27 08:38:32;;;;;;;21.40;15.27;;;;;;;16.54;64.98;98519.59;4990552;28;20097;-28
2023/03/27 08:40:59;;;;;;;14.68;10.48;;;;;;;16.87;63.64;98528.44;4991070;28;20037;-28
2023/03/27 08:43:29;;;;;;;13.48;8.05;;;;;;;17.02;59.99;98516.56;4990604;28;20057;-28
2023/03/27 08:46:40;;;;;;;10.77;6.03;;;;;;;17.43;56.00;98531.94;4990602;28;20061;-28
2023/03/27 08:49:17;;;;;;;7.80;5.90;;;;;;;17.77;53.79;98517.97;4892271;29;20040;-28
2023/03/27 08:51:56;;;;;;;7.80;5.13;;;;;;;17.70;51.75;98511.44;4892200;29;20036;-28
2023/03/27 08:54:28;;;;;;;8.90;5.45;;;;;;;17.89;52.65;98492.41;4959140;28;20049;-28
2023/03/27 08:56:54;;;;;;;8.23;5.90;;;;;;;18.05;51.91;98507.94;4990423;28;20049;-28
2023/03/27 08:59:29;;;;;;;7.72;5.03;;;;;;;18.37;49.25;98499.88;4990254;28;20453;-28
2023/03/27 09:02:22;;;;;;;8.15;5.15;;;;;;;19.16;47.47;98509.94;4990522;28;20721;-28
2023/03/27 09:04:52;;;;;;;9.57;5.15;;;;;;;19.38;45.49;98506.34;4990549;28;20030;-28
2023/03/27 09:07:39;;;;;;;7.07;4.03;;;;;;;19.44;44.03;98496.19;4990332;28;20030;-28
2023/03/27 09:10:16;;;;;;;7.57;5.33;;;;;;;19.90;43.60;98475.91;4990082;28;20560;-28
2023/03/27 09:12:55;;;;;;;6.35;4.30;;;;;;;20.17;41.18;98468.53;4990077;28;20314;-28
2023/03/27 09:15:30;;;;;;;10.98;9.48;;;;;;;20.27;43.49;98458.16;4990085;28;20031;-28
2023/03/27 09:18:36;;;;;;;10.27;7.70;;;;;;;20.70;42.59;98467.28;4989896;28;21358;-28
2023/03/27 09:21:28;;;;;;;6.43;4.25;;;;;;;20.95;42.30;98459.38;4976384;28;20519;-28
2023/03/27 09:23:57;;;;;;;6.72;4.43;;;;;;;20.77;42.36;98436.97;4952344;28;20034;-28
2023/03/27 09:26:29;;;;;;;9.13;5.60;;;;;;;20.72;41.96;98456.09;4989744;28;20053;-28
2023/03/27 09:29:00;;;;;;;9.68;5.55;;;;;;;20.66;42.38;98436.56;4989638;28;20398;-28
2023/03/27 09:31:29;;;;;;;9.45;5.32;;;;;;;21.23;42.15;98446.94;4989842;28;20078;-28
2023/03/27 09:33:58;;;;;;;8.63;5.60;;;;;;;20.98;44.28;98431.59;4989784;28;20070;-28
2023/03/27 09:36:23;;;;;;;7.63;4.65;;;;;;;20.76;44.09;98422.66;4989515;28;20057;-28
2023/03/27 09:38:57;;;;;;;7.43;4.75;;;;;;;21.04;44.70;98405.91;4989829;28;20030;-28
2023/03/27 09:41:30;;;;;;;6.80;4.47;;;;;;;21.20;41.56;98395.28;4989738;28;20062;-28
2023/03/27 09:44:13;;;;;;;6.57;4.90;;;;;;;21.11;42.34;98410.81;4989091;28;20093;-28
2023/03/27 09:46:43;;;;;;;6.55;4.65;;;;;;;21.23;42.06;98386.50;4989298;28;20030;-28
2023/03/27 09:49:13;;;;;;;7.30;3.95;;;;;;;21.79;40.23;98391.63;4989634;28;20143;-29
2023/03/27 09:51:42;;;;;;;7.18;3.33;;;;;;;22.07;37.74;98389.13;4989215;28;20030;-28
2023/03/27 09:54:11;;;;;;;5.80;3.05;;;;;;;22.49;35.54;98380.81;4989528;28;20577;-28
2023/03/27 09:56:50;;;;;;;5.03;3.10;;;;;;;22.81;38.10;98357.38;4988983;28;20679;-28
2023/03/27 09:59:25;;;;;;;8.55;3.88;;;;;;;22.95;36.03;98372.53;4989195;28;20062;-28
2023/03/27 10:01:54;;;;;;;7.93;5.03;;;;;;;22.97;37.60;98338.44;4989224;28;20038;-28
2023/03/27 10:04:22;;;;;;;5.97;4.03;;;;;;;23.04;37.10;98329.72;4989373;28;20069;-28
2023/03/27 10:07:21;;;;;;;6.47;3.20;;;;;;;23.61;35.45;98349.56;4988719;28;20022;-28
2023/03/27 10:10:02;;;;;;;5.93;3.45;;;;;;;23.35;31.80;98352.72;4988833;28;20030;-28
2023/03/27 10:12:28;;;;;;;5.50;2.90;;;;;;;23.33;31.64;98352.28;4989609;28;20034;-28
2023/03/27 10:14:54;;;;;;;3.72;2.08;;;;;;;23.15;31.97;98354.50;4989187;28;20041;-28
2023/03/27 10:17:33;;;;;;;3.60;2.25;;;;;;;23.46;32.21;98343.75;4988972;28;20402;-29
2023/03/27 10:20:15;;;;;;;5.65;2.30;;;;;;;23.59;31.73;98341.75;4988712;28;20100;-28
2023/03/27 10:22:49;;;;;;;6.53;2.78;;;;;;;23.59;32.51;98341.75;4989355;28;20046;-28
2023/03/27 10:25:20;;;;;;;5.20;2.88;;;;;;;23.40;32.66;98319.84;4988642;28;20041;-28
2023/03/27 10:27:46;;;;;;;4.57;2.65;;;;;;;23.72;32.31;98331.63;4989152;28;20039;-28
2023/03/27 10:30:32;;;;;;;4.97;2.47;;;;;;;24.10;32.59;98326.75;4988831;28;20034;-29
2023/03/27 10:32:58;;;;;;;4.38;2.50;;;;;;;23.71;32.15;98318.34;4988941;28;20030;-28
2023/03/27 10:35:34;;;;;;;6.95;3.15;;;;;;;23.85;32.03;98313.31;4988508;28;20031;-28
2023/03/27 10:38:03;;;;;;;4.97;2.88;;;;;;;23.44;32.19;98288.09;4988952;28;20022;-28
2023/03/27 10:40:32;;;;;;;5.88;3.13;;;;;;;23.53;33.98;98307.78;4970919;28;20106;-28
2023/03/27 10:43:06;;;;;;;6.53;3.10;;;;;;;24.09;32.20;98295.19;4988267;28;20058;-28
2023/03/27 10:45:37;;;;;;;6.82;3.72;;;;;;;23.86;32.81;98295.81;4988079;28;20046;-29
2023/03/27 10:48:06;;;;;;;5.45;3.38;;;;;;;23.70;32.71;98276.75;4988419;28;20038;-29
2023/03/27 10:50:44;;;;;;;6.15;3.60;;;;;;;23.56;33.38;98270.91;4988264;28;20030;-28
2023/03/27 10:53:31;;;;;;;5.20;3.05;;;;;;;23.46;34.06;98283.91;4988406;28;20080;-28
2023/03/27 10:55:57;;;;;;;;;;;;;;;23.96;34.32;98289.84;4988494;28;20061;-28
2023/03/27 10:58:29;;;;;;;6.70;4.07;;;;;;;24.50;34.67;98271.28;4988227;28;20011;-28
2023/03/27 11:01:05;;;;;;;5.72;3.40;;;;;;;23.95;33.89;98266.50;4987875;28;20069;-28
2023/03/27 11:03:50;;;;;;;6.55;3.70;;;;;;;24.65;32.76;98254.09;4988093;28;20427;-29
2023/03/27 11:06:20;;;;;;;6.00;3.40;;;;;;;24.98;32.79;98233.75;4988239;28;20166;-28
2023/03/27 11:09:04;;;;;;;6.28;3.45;;;;;;;24.84;31.48;98237.75;4987981;28;20552;-29
2023/03/27 11:11:37;;;;;;;4.40;3.15;;;;;;;24.92;31.59;98229.72;4988249;28;20038;-29
2023/03/27 11:14:10;;;;;;;5.57;3.22;;;;;;;25.38;31.55;98229.84;4987980;28;20022;-28
2023/03/27 11:16:44;;;;;;;7.43;3.72;;;;;;;25.42;30.55;98236.16;4987827;28;20089;-29
2023/03/27 11:19:09;;;;;;;7.07;4.28;;;;;;;25.45;32.01;98236.22;4987488;28;20530;-28
2023/03/27 11:21:42;;;;;;;5.78;3.70;;;;;;;25.57;30.87;98232.53;4987716;28;20069;-29
2023/03/27 11:24:21;;;;;;;8.73;3.60;;;;;;;26.32;30.78;98215.78;4987503;28;20100;-29
2023/03/27 11:27:26;;;;;;;7.38;4.80;;;;;;;26.06;32.43;98188.09;4987981;28;20049;-29
2023/03/27 11:30:23;;;;;;;7.05;4.20;;;;;;;26.37;33.03;98193.59;4971426;28;20046;-29
2023/03/27 11:33:03;;;;;;;10.25;4.90;;;;;;;25.87;32.05;98199.09;4987413;28;20034;-29
2023/03/27 11:35:37;;;;;;;6.82;3.47;;;;;;;26.10;30.94;98181.91;4987726;28;20038;-29
2023/03/27 11:38:09;;;;;;;5.78;3.50;;;;;;;26.41;30.41;98180.75;4987781;28;20093;-29
2023/03/27 11:40:42;;;;;;;6.68;3.67;;;;;;;26.93;31.17;98195.50;4987368;28;20744;-29
2023/03/27 11:43:11;;;;;;;6.25;3.35;;;;;;;26.92;28.68;98193.13;4987245;28;20069;-29
2023/03/27 11:46:11;;;;;;;6.43;3.80;;;;;;;26.90;29.14;98189.97;4987532;28;20018;-29
2023/03/27 11:49:01;;;;;;;6.15;4.07;;;;;;;25.75;30.48;98191.88;4981532;28;20049;-29